Strawbridge, Pennsylvania
Current Conditions -  °F | °C
As of 3:54 AM on Wednesday 22 Oct 2014 (Local Time) from KIPT Reporting Station
Overcast Overcast  
Wind Chill: 12°   Ceiling: 2300
Heat Index: 12°   Visibility: 10mi
Dew Point:   Wind: 6mph
Humidity: 72%   Direction: 320°NW
Pressure: 29.95"   Gusts: NA
Location:  41.3719°N, 76.499°W
Report Text: KIPT 220754Z AUTO 32005KT 10SM OVC023 12/07 A2995 RMK AO2 SLP142 T01220072
Loading
Personal Weather Stations






























Interactive Weather Map
Tropical Storm Tracking
New forecast layout! Learn more

10-Day Weather Forecast

Advertisements
Track Severe Weather on mobile